Time;durP1;ratioP1;P1;durP2;ratioP2;P2;SDS_P1;SDS_P2;PMS_P1;PMS_P2;Temp;Humidity;BMP_temperature;BMP_pressure;BME280_temperature;BME280_humidity;BME280_pressure;Samples;Min_cycle;Max_cycle;Signal;HPM_P1;HPM_P2
2023/10/07 00:01:28;;;;;;;;;;;;;;;;;;2065891;28;19918;-93
2023/10/07 00:02:31;;;;;;;;;;;;;;;;;;2067330;28;19909;-92
2023/10/07 00:03:34;;;;;;;;;;;;;;;;;;2058626;28;19910;-93
2023/10/07 00:04:38;;;;;;;;;;;;;;;;;;2057808;28;19982;-93
2023/10/07 00:05:42;;;;;;;;;;;;;;;;;;2051465;28;19966;-93
2023/10/07 00:06:45;;;;;;;;;;;;;;;;;;2050904;28;19914;-93
2023/10/07 00:07:45;;;;;;;;;;;;;;;;;;2050839;28;20344;-93
2023/10/07 00:08:46;;;;;;;;;;;;;;;;;;2058827;28;19933;-93
2023/10/07 00:09:50;;;;;;;;;;;;;;;;;;2057778;28;19921;-93
2023/10/07 00:10:50;;;;;;;;;;;;;;;;;;2049452;28;19919;-92
2023/10/07 00:11:50;;;;;;;;;;;;;;;;;;2048805;28;19914;-93
2023/10/07 00:12:52;;;;;;;;;;;;;;;;;;2049055;28;19918;-93
2023/10/07 00:13:54;;;;;;;;;;;;;;;;;;2048780;28;19930;-93
2023/10/07 00:14:54;;;;;;;;;;;;;;;;;;2058850;28;19917;-91
2023/10/07 00:15:58;;;;;;;;;;;;;;;;;;2051875;28;19921;-91
2023/10/07 00:17:04;;;;;;;;;;;;;;;;;;2053168;28;19922;-89
2023/10/07 00:18:14;;;;;;;;;;;;;;;;;;2054622;28;19914;-89
2023/10/07 00:19:16;;;;;;;;;;;;;;;;;;2055248;28;19942;-90
2023/10/07 00:20:20;;;;;;;;;;;;;;;;;;2061750;28;19952;-89
2023/10/07 00:21:27;;;;;;;;;;;;;;;;;;1710613;28;10000760;-92
2023/10/07 00:22:27;;;;;;;;;;;;;;;;;;2050524;28;19930;-91
2023/10/07 00:23:28;;;;;;;;;;;;;;;;;;2059257;28;19977;-91
2023/10/07 00:24:34;;;;;;;;;;;;;;;;;;2059738;28;19918;-92
2023/10/07 00:25:38;;;;;;;;;;;;;;;;;;2051726;28;19973;-90
2023/10/07 00:26:38;;;;;;;;;;;;;;;;;;2052371;28;20013;-90
2023/10/07 00:27:38;;;;;;;;;;;;;;;;;;2060022;28;19921;-90
2023/10/07 00:28:39;;;;;;;;;;;;;;;;;;2060084;28;19918;-90
2023/10/07 00:29:54;;;;;;;;;;;;;;;;;;2059600;28;20263;-93
2023/10/07 00:31:02;;;;;;;;;;;;;;;;;;2051382;28;19918;-93
2023/10/07 00:32:04;;;;;;;;;;;;;;;;;;2057058;28;19910;-93
2023/10/07 00:33:09;;;;;;;;;;;;;;;;;;2049478;28;20025;-93
2023/10/07 00:34:19;;;;;;;;;;;;;;;;;;2049684;28;19967;-93
2023/10/07 00:35:22;;;;;;;;;;;;;;;;;;2057274;28;20014;-93
2023/10/07 00:36:44;;;;;;;;;;;;;;;;;;2057184;28;20377;-92
2023/10/07 00:37:44;;;;;;;;;;;;;;;;;;2056404;28;20439;-93
2023/10/07 00:38:45;;;;;;;;;;;;;;;;;;2051080;28;20001;-93
2023/10/07 00:40:14;;;;;;;;;;;;;;;;;;1994995;28;10001053;-93
2023/10/07 00:41:18;;;;;;;;;;;;;;;;;;1369239;28;10000980;-93
2023/10/07 00:42:19;;;;;;;;;;;;;;;;;;2049207;28;19910;-92
2023/10/07 00:43:26;;;;;;;;;;;;;;;;;;2048882;28;19919;-93
2023/10/07 00:44:31;;;;;;;;;;;;;;;;;;2049444;28;19950;-93
2023/10/07 00:45:32;;;;;;;;;;;;;;;;;;2049080;28;19923;-93
2023/10/07 00:46:34;;;;;;;;;;;;;;;;;;2056656;28;19972;-93
2023/10/07 00:47:36;;;;;;;;;;;;;;;;;;2056516;28;19918;-93
2023/10/07 00:48:52;;;;;;;;;;;;;;;;;;2056698;28;20439;-93
2023/10/07 00:49:54;;;;;;;;;;;;;;;;;;2050658;28;19918;-93
2023/10/07 00:50:55;;;;;;;;;;;;;;;;;;2048808;28;20330;-94
2023/10/07 00:51:57;;;;;;;;;;;;;;;;;;2056664;28;19918;-93
2023/10/07 00:52:57;;;;;;;;;;;;;;;;;;2048696;28;20350;-93
2023/10/07 00:54:01;;;;;;;;;;;;;;;;;;2048564;28;19918;-93
2023/10/07 00:56:04;;;;;;;;;;;;;;;;;;2056809;28;20021;-93
2023/10/07 00:57:23;;;;;;;;;;;;;;;;;;2056646;28;20378;-92
2023/10/07 00:58:27;;;;;;;;;;;;;;;;;;2050776;28;20397;-93
2023/10/07 00:59:29;;;;;;;;;;;;;;;;;;1336843;28;9999744;-92
2023/10/07 01:01:41;;;;;;;;;;;;;;;;;;2054551;28;20361;-93
2023/10/07 01:02:51;;;;;;;;;;;;;;;;;;2056617;28;20400;-92
2023/10/07 01:03:55;;;;;;;;;;;;;;;;;;2058261;28;19985;-93
2023/10/07 01:05:06;;;;;;;;;;;;;;;;;;2056347;28;19992;-92
2023/10/07 01:06:10;;;;;;;;;;;;;;;;;;2021490;28;19922;-92
2023/10/07 01:07:18;;;;;;;;;;;;;;;;;;2047260;28;19910;-92
2023/10/07 01:08:27;;;;;;;;;;;;;;;;;;2049747;28;19918;-92
2023/10/07 01:09:28;;;;;;;;;;;;;;;;;;2049556;28;20251;-91
2023/10/07 01:10:31;;;;;;;;;;;;;;;;;;2048536;28;19918;-93
2023/10/07 01:11:31;;;;;;;;;;;;;;;;;;2048814;28;19919;-94
2023/10/07 01:12:36;;;;;;;;;;;;;;;;;;2048578;28;20299;-94
2023/10/07 01:13:44;;;;;;;;;;;;;;;;;;2049146;28;20357;-94
2023/10/07 01:14:47;;;;;;;;;;;;;;;;;;2049516;28;19918;-93
2023/10/07 01:15:48;;;;;;;;;;;;;;;;;;2049120;28;20034;-92
2023/10/07 01:16:49;;;;;;;;;;;;;;;;;;2048426;28;20475;-92
2023/10/07 01:18:05;;;;;;;;;;;;;;;;;;2056712;28;19926;-93
2023/10/07 01:20:13;;;;;;;;;;;;;;;;;;2056990;28;19922;-93
2023/10/07 01:21:19;;;;;;;;;;;;;;;;;;2056397;28;19910;-93
2023/10/07 01:22:23;;;;;;;;;;;;;;;;;;2049395;28;19918;-93
2023/10/07 01:23:32;;;;;;;;;;;;;;;;;;2056415;28;20373;-94
2023/10/07 01:25:44;;;;;;;;;;;;;;;;;;2056726;28;19973;-92
2023/10/07 01:26:44;;;;;;;;;;;;;;;;;;2056618;28;19972;-93
2023/10/07 01:27:53;;;;;;;;;;;;;;;;;;2048466;28;19914;-92
2023/10/07 01:29:02;;;;;;;;;;;;;;;;;;2050251;28;19935;-94
2023/10/07 01:30:25;;;;;;;;;;;;;;;;;;2051122;28;20000;-93
2023/10/07 01:31:29;;;;;;;;;;;;;;;;;;2052952;28;19918;-93
2023/10/07 01:32:32;;;;;;;;;;;;;;;;;;2050377;28;19961;-93
2023/10/07 01:33:47;;;;;;;;;;;;;;;;;;2050269;28;19918;-93
2023/10/07 01:34:48;;;;;;;;;;;;;;;;;;2057986;28;19926;-92
2023/10/07 01:37:11;;;;;;;;;;;;;;;;;;2058429;28;19918;-93
2023/10/07 01:38:17;;;;;;;;;;;;;;;;;;2057987;28;19986;-93
2023/10/07 01:39:17;;;;;;;;;;;;;;;;;;2058583;28;20060;-93
2023/10/07 01:40:18;;;;;;;;;;;;;;;;;;2058132;28;19918;-93
2023/10/07 01:41:19;;;;;;;;;;;;;;;;;;2049921;28;19918;-92
2023/10/07 01:42:37;;;;;;;;;;;;;;;;;;2057895;28;19922;-93
2023/10/07 01:43:41;;;;;;;;;;;;;;;;;;2052266;28;19922;-93
2023/10/07 01:44:41;;;;;;;;;;;;;;;;;;2050283;28;19914;-92
2023/10/07 01:45:42;;;;;;;;;;;;;;;;;;2057847;28;19918;-93
2023/10/07 01:46:44;;;;;;;;;;;;;;;;;;2057749;28;19920;-93
2023/10/07 01:47:44;;;;;;;;;;;;;;;;;;2057922;28;19914;-92
2023/10/07 01:48:55;;;;;;;;;;;;;;;;;;2049941;28;20009;-92
2023/10/07 01:49:57;;;;;;;;;;;;;;;;;;2051205;28;19998;-92
2023/10/07 01:51:01;;;;;;;;;;;;;;;;;;2049958;28;19918;-93
2023/10/07 01:52:03;;;;;;;;;;;;;;;;;;2050347;28;19918;-94
2023/10/07 01:53:04;;;;;;;;;;;;;;;;;;2057871;28;19914;-93
2023/10/07 01:54:08;;;;;;;;;;;;;;;;;;2058121;28;19957;-92
2023/10/07 01:55:09;;;;;;;;;;;;;;;;;;2061976;28;19917;-91
2023/10/07 01:56:14;;;;;;;;;;;;;;;;;;2057866;28;20369;-93
2023/10/07 01:57:15;;;;;;;;;;;;;;;;;;2050496;28;19979;-93
2023/10/07 01:58:17;;;;;;;;;;;;;;;;;;2049697;28;20062;-92
2023/10/07 02:00:36;;;;;;;;;;;;;;;;;;2058019;28;20362;-92
2023/10/07 02:01:41;;;;;;;;;;;;;;;;;;2051028;28;20319;-94
2023/10/07 02:03:02;;;;;;;;;;;;;;;;;;1699963;28;10242541;-93
2023/10/07 02:04:11;;;;;;;;;;;;;;;;;;2060685;28;19933;-93
2023/10/07 02:05:12;;;;;;;;;;;;;;;;;;2067299;28;20079;-92
2023/10/07 02:06:18;;;;;;;;;;;;;;;;;;2057894;28;19931;-91
2023/10/07 02:07:18;;;;;;;;;;;;;;;;;;2050346;28;19918;-93
2023/10/07 02:08:21;;;;;;;;;;;;;;;;;;2057880;28;20321;-93
2023/10/07 02:09:25;;;;;;;;;;;;;;;;;;2057707;28;19914;-92
2023/10/07 02:10:26;;;;;;;;;;;;;;;;;;2057766;28;19937;-93
2023/10/07 02:11:30;;;;;;;;;;;;;;;;;;2049674;28;19914;-94
2023/10/07 02:12:32;;;;;;;;;;;;;;;;;;2042749;28;19941;-94
2023/10/07 02:13:33;;;;;;;;;;;;;;;;;;2057698;28;19949;-93
2023/10/07 02:14:34;;;;;;;;;;;;;;;;;;2057742;28;19969;-94
2023/10/07 02:15:36;;;;;;;;;;;;;;;;;;2055906;28;19910;-93
2023/10/07 02:16:37;;;;;;;;;;;;;;;;;;2057513;28;20458;-93
2023/10/07 02:17:37;;;;;;;;;;;;;;;;;;2057757;28;19930;-94
2023/10/07 02:18:37;;;;;;;;;;;;;;;;;;2049613;28;20347;-93
2023/10/07 02:19:40;;;;;;;;;;;;;;;;;;2049533;28;19919;-93
2023/10/07 02:21:06;;;;;;;;;;;;;;;;;;2057635;28;20080;-93
2023/10/07 02:22:08;;;;;;;;;;;;;;;;;;2052940;28;19917;-94
2023/10/07 02:23:15;;;;;;;;;;;;;;;;;;2049621;28;19914;-93
2023/10/07 02:24:21;;;;;;;;;;;;;;;;;;2057533;28;20051;-92
2023/10/07 02:25:26;;;;;;;;;;;;;;;;;;2056166;28;19922;-92
2023/10/07 02:26:27;;;;;;;;;;;;;;;;;;2049789;29;19919;-91
2023/10/07 02:27:28;;;;;;;;;;;;;;;;;;2052423;28;19977;-92
2023/10/07 02:28:29;;;;;;;;;;;;;;;;;;2057508;28;19925;-93
2023/10/07 02:29:30;;;;;;;;;;;;;;;;;;2057443;28;20101;-93
2023/10/07 02:30:34;;;;;;;;;;;;;;;;;;2057562;28;20302;-93
2023/10/07 02:31:41;;;;;;;;;;;;;;;;;;2057806;28;19918;-93
2023/10/07 02:32:42;;;;;;;;;;;;;;;;;;2057489;28;19918;-93
2023/10/07 02:33:43;;;;;;;;;;;;;;;;;;2057442;28;20416;-93
2023/10/07 02:34:53;;;;;;;;;;;;;;;;;;2057578;28;20305;-93
2023/10/07 02:35:56;;;;;;;;;;;;;;;;;;2057535;28;19914;-92
2023/10/07 02:37:12;;;;;;;;;;;;;;;;;;2049885;28;19918;-92
2023/10/07 02:38:13;;;;;;;;;;;;;;;;;;2051501;28;19986;-93
2023/10/07 02:39:19;;;;;;;;;;;;;;;;;;2049470;28;19979;-93
2023/10/07 02:40:22;;;;;;;;;;;;;;;;;;2049151;28;19918;-93
2023/10/07 02:41:24;;;;;;;;;;;;;;;;;;2049603;28;19910;-93
2023/10/07 02:42:28;;;;;;;;;;;;;;;;;;2049694;28;19922;-94
2023/10/07 02:43:28;;;;;;;;;;;;;;;;;;2057471;28;20028;-92
2023/10/07 02:44:29;;;;;;;;;;;;;;;;;;2049329;28;20374;-92
2023/10/07 02:45:30;;;;;;;;;;;;;;;;;;2049271;28;20381;-92
2023/10/07 02:46:33;;;;;;;;;;;;;;;;;;2049385;28;20001;-92
2023/10/07 02:47:34;;;;;;;;;;;;;;;;;;2049674;28;20431;-92
2023/10/07 02:48:38;;;;;;;;;;;;;;;;;;2049483;28;20037;-93
2023/10/07 02:49:47;;;;;;;;;;;;;;;;;;2049789;28;19918;-93
2023/10/07 02:50:51;;;;;;;;;;;;;;;;;;2050298;28;20013;-94
2023/10/07 02:51:58;;;;;;;;;;;;;;;;;;2049937;28;19993;-94
2023/10/07 02:53:01;;;;;;;;;;;;;;;;;;2050023;28;20279;-94
2023/10/07 02:54:12;;;;;;;;;;;;;;;;;;2049686;28;20274;-93
2023/10/07 02:56:22;;;;;;;;;;;;;;;;;;2057677;28;20334;-94
2023/10/07 02:57:24;;;;;;;;;;;;;;;;;;2057060;28;19965;-93
2023/10/07 02:58:32;;;;;;;;;;;;;;;;;;2049591;28;20322;-93
2023/10/07 02:59:36;;;;;;;;;;;;;;;;;;2050181;28;19918;-94
2023/10/07 03:00:36;;;;;;;;;;;;;;;;;;2057546;28;20294;-93
2023/10/07 03:01:38;;;;;;;;;;;;;;;;;;2057336;28;19968;-93
2023/10/07 03:02:48;;;;;;;;;;;;;;;;;;2049497;28;19918;-93
2023/10/07 03:03:48;;;;;;;;;;;;;;;;;;2057333;28;20293;-93
2023/10/07 03:04:58;;;;;;;;;;;;;;;;;;2049237;28;20021;-92
2023/10/07 03:05:59;;;;;;;;;;;;;;;;;;2050494;28;20429;-93
2023/10/07 03:07:00;;;;;;;;;;;;;;;;;;2049350;29;19918;-92
2023/10/07 03:08:04;;;;;;;;;;;;;;;;;;2049418;28;20279;-93
2023/10/07 03:09:10;;;;;;;;;;;;;;;;;;2049364;28;19965;-93
2023/10/07 03:10:33;;;;;;;;;;;;;;;;;;2056224;28;19918;-94
2023/10/07 03:11:48;;;;;;;;;;;;;;;;;;2057509;28;20329;-94
2023/10/07 03:12:56;;;;;;;;;;;;;;;;;;2051467;28;20331;-92
2023/10/07 03:13:59;;;;;;;;;;;;;;;;;;2057318;28;19957;-92
2023/10/07 03:15:29;;;;;;;;;;;;;;;;;;2049638;28;19974;-93
2023/10/07 03:17:33;;;;;;;;;;;;;;;;;;2065652;28;19925;-91
2023/10/07 03:18:33;;;;;;;;;;;;;;;;;;2057125;28;19925;-92
2023/10/07 03:19:48;;;;;;;;;;;;;;;;;;2049237;28;19914;-93
2023/10/07 03:21:00;;;;;;;;;;;;;;;;;;2050978;28;20013;-94
2023/10/07 03:22:09;;;;;;;;;;;;;;;;;;2050935;28;19946;-93
2023/10/07 03:23:19;;;;;;;;;;;;;;;;;;2050247;28;20017;-93
2023/10/07 03:24:29;;;;;;;;;;;;;;;;;;2057229;28;19914;-92
2023/10/07 03:25:34;;;;;;;;;;;;;;;;;;2050375;28;20005;-91
2023/10/07 03:26:36;;;;;;;;;;;;;;;;;;2050162;28;20033;-93
2023/10/07 03:27:39;;;;;;;;;;;;;;;;;;2057586;28;19914;-92
2023/10/07 03:28:51;;;;;;;;;;;;;;;;;;2049870;28;19915;-92
2023/10/07 03:30:00;;;;;;;;;;;;;;;;;;2050652;28;20405;-92
2023/10/07 03:31:00;;;;;;;;;;;;;;;;;;2057309;28;20329;-94
2023/10/07 03:32:00;;;;;;;;;;;;;;;;;;2057215;28;20013;-92
2023/10/07 03:33:08;;;;;;;;;;;;;;;;;;2057044;28;19926;-93
2023/10/07 03:34:12;;;;;;;;;;;;;;;;;;2050157;28;20119;-93
2023/10/07 03:35:17;;;;;;;;;;;;;;;;;;2057115;28;20001;-94
2023/10/07 03:37:25;;;;;;;;;;;;;;;;;;2057998;28;19937;-96
2023/10/07 03:38:25;;;;;;;;;;;;;;;;;;2057556;28;19918;-96
2023/10/07 03:39:42;;;;;;;;;;;;;;;;;;2049079;28;19914;-96
2023/10/07 03:40:48;;;;;;;;;;;;;;;;;;2051894;28;19918;-95
2023/10/07 03:41:55;;;;;;;;;;;;;;;;;;2051362;28;19923;-93
2023/10/07 03:42:55;;;;;;;;;;;;;;;;;;2051941;28;19941;-93
2023/10/07 03:43:56;;;;;;;;;;;;;;;;;;2058981;28;19957;-94
2023/10/07 03:44:56;;;;;;;;;;;;;;;;;;2058751;28;20438;-93
2023/10/07 03:45:57;;;;;;;;;;;;;;;;;;2050611;28;19923;-94
2023/10/07 03:46:58;;;;;;;;;;;;;;;;;;2049653;28;19953;-94
2023/10/07 03:47:58;;;;;;;;;;;;;;;;;;2049432;28;19918;-95
2023/10/07 03:48:59;;;;;;;;;;;;;;;;;;2049506;28;19922;-96
2023/10/07 03:49:59;;;;;;;;;;;;;;;;;;1706498;28;10001277;-94
2023/10/07 03:51:04;;;;;;;;;;;;;;;;;;2049165;28;19914;-95
2023/10/07 03:52:07;;;;;;;;;;;;;;;;;;2049678;28;19924;-96
2023/10/07 03:53:09;;;;;;;;;;;;;;;;;;2049947;28;19918;-96
2023/10/07 03:54:15;;;;;;;;;;;;;;;;;;2058718;28;19930;-96
2023/10/07 03:55:15;;;;;;;;;;;;;;;;;;2059764;28;19933;-96
2023/10/07 03:56:16;;;;;;;;;;;;;;;;;;2067003;28;19910;-96
2023/10/07 03:57:18;;;;;;;;;;;;;;;;;;2066249;28;19906;-95
2023/10/07 03:58:20;;;;;;;;;;;;;;;;;;2065556;28;19926;-95
2023/10/07 03:59:20;;;;;;;;;;;;;;;;;;2057794;28;19918;-95
2023/10/07 04:00:21;;;;;;;;;;;;;;;;;;2049945;28;20001;-95
2023/10/07 04:01:26;;;;;;;;;;;;;;;;;;2057760;28;20326;-95
2023/10/07 04:03:35;;;;;;;;;;;;;;;;;;2057894;28;19977;-95
2023/10/07 04:04:35;;;;;;;;;;;;;;;;;;2057076;28;20358;-95
2023/10/07 04:05:36;;;;;;;;;;;;;;;;;;2048999;28;19921;-96
2023/10/07 04:06:36;;;;;;;;;;;;;;;;;;2057383;28;20008;-96
2023/10/07 04:07:37;;;;;;;;;;;;;;;;;;2049060;28;20001;-95
2023/10/07 04:08:39;;;;;;;;;;;;;;;;;;2048933;28;19937;-95
2023/10/07 04:09:43;;;;;;;;;;;;;;;;;;2056999;28;19913;-95
2023/10/07 04:10:47;;;;;;;;;;;;;;;;;;2049421;28;19917;-95
2023/10/07 04:11:50;;;;;;;;;;;;;;;;;;2049440;28;20260;-96
2023/10/07 04:12:56;;;;;;;;;;;;;;;;;;2049407;28;19919;-96
2023/10/07 04:13:56;;;;;;;;;;;;;;;;;;2049805;28;19925;-94
2023/10/07 04:14:56;;;;;;;;;;;;;;;;;;2049133;28;20017;-94
2023/10/07 04:15:59;;;;;;;;;;;;;;;;;;2056976;28;19918;-94
2023/10/07 04:17:00;;;;;;;;;;;;;;;;;;2057241;28;19918;-94
2023/10/07 04:18:00;;;;;;;;;;;;;;;;;;2049437;28;19918;-94
2023/10/07 04:19:30;;;;;;;;;;;;;;;;;;2049419;28;20338;-93
2023/10/07 04:20:50;;;;;;;;;;;;;;;;;;2061094;28;20308;-93
2023/10/07 04:21:50;;;;;;;;;;;;;;;;;;2065737;28;19925;-94
2023/10/07 04:23:12;;;;;;;;;;;;;;;;;;2057182;28;19917;-94
2023/10/07 04:24:12;;;;;;;;;;;;;;;;;;2059477;28;19920;-95
2023/10/07 04:25:17;;;;;;;;;;;;;;;;;;2056768;28;20009;-95
2023/10/07 04:26:23;;;;;;;;;;;;;;;;;;2049794;28;20394;-95
2023/10/07 04:28:27;;;;;;;;;;;;;;;;;;2063937;28;19918;-93
2023/10/07 04:29:28;;;;;;;;;;;;;;;;;;2057193;28;19918;-95
2023/10/07 04:30:38;;;;;;;;;;;;;;;;;;2048944;28;20373;-94
2023/10/07 04:31:39;;;;;;;;;;;;;;;;;;2050317;28;19973;-93
2023/10/07 04:32:52;;;;;;;;;;;;;;;;;;2048775;28;19967;-94
2023/10/07 04:33:53;;;;;;;;;;;;;;;;;;2050448;28;19958;-94
2023/10/07 04:36:04;;;;;;;;;;;;;;;;;;2058332;28;20388;-95
2023/10/07 04:39:39;;;;;;;;;;;;;;;;;;2028201;28;20354;-95
2023/10/07 04:42:23;;;;;;;;;;;;;;;;;;2029290;29;20432;-95
2023/10/07 04:43:35;;;;;;;;;;;;;;;;;;2053670;28;19943;-96
2023/10/07 04:45:49;;;;;;;;;;;;;;;;;;2057132;28;19914;-95
2023/10/07 04:46:56;;;;;;;;;;;;;;;;;;2056826;28;19918;-96
2023/10/07 04:48:09;;;;;;;;;;;;;;;;;;1692234;28;10456272;-95
2023/10/07 04:49:13;;;;;;;;;;;;;;;;;;1702853;28;10305966;-96
2023/10/07 04:51:23;;;;;;;;;;;;;;;;;;2057308;28;19961;-94
2023/10/07 04:52:30;;;;;;;;;;;;;;;;;;2057751;28;19972;-95
2023/10/07 04:53:40;;;;;;;;;;;;;;;;;;2050362;28;19964;-95
2023/10/07 04:54:43;;;;;;;;;;;;;;;;;;2050134;28;19961;-95
2023/10/07 04:55:45;;;;;;;;;;;;;;;;;;2049032;28;19918;-96
2023/10/07 04:56:53;;;;;;;;;;;;;;;;;;2056844;28;19921;-96
2023/10/07 04:58:53;;;;;;;;;;;;;;;;;;2057106;28;19983;-96
2023/10/07 04:59:56;;;;;;;;;;;;;;;;;;2056818;28;19918;-94
2023/10/07 05:02:30;;;;;;;;;;;;;;;;;;2061746;28;20288;-95
2023/10/07 05:03:31;;;;;;;;;;;;;;;;;;2056615;28;19914;-96
2023/10/07 05:04:34;;;;;;;;;;;;;;;;;;2050453;28;20006;-96
2023/10/07 05:05:34;;;;;;;;;;;;;;;;;;2058374;28;19949;-94
2023/10/07 05:06:35;;;;;;;;;;;;;;;;;;2050323;28;19914;-93
2023/10/07 05:07:38;;;;;;;;;;;;;;;;;;2058214;28;19956;-94
2023/10/07 05:08:39;;;;;;;;;;;;;;;;;;2058461;28;20458;-94
2023/10/07 05:10:00;;;;;;;;;;;;;;;;;;;;;
2023/10/07 05:11:11;;;;;;;;;;;;;;;;;;2061204;28;19918;-92
2023/10/07 05:12:40;;;;;;;;;;;;;;;;;;;;;
2023/10/07 05:13:44;;;;;;;;;;;;;;;;;;2067132;28;20000;-93
2023/10/07 05:14:45;;;;;;;;;;;;;;;;;;2066845;28;20314;-93
2023/10/07 05:15:45;;;;;;;;;;;;;;;;;;2067027;28;19909;-92
2023/10/07 05:16:49;;;;;;;;;;;;;;;;;;2058043;28;19941;-92
2023/10/07 05:17:52;;;;;;;;;;;;;;;;;;2058601;28;20314;-92
2023/10/07 05:19:22;;;;;;;;;;;;;;;;;;2058022;28;19997;-92
2023/10/07 05:20:29;;;;;;;;;;;;;;;;;;2062389;28;20332;-92
2023/10/07 05:21:31;;;;;;;;;;;;;;;;;;2058153;28;20382;-92
2023/10/07 05:22:32;;;;;;;;;;;;;;;;;;2058296;28;20001;-93
2023/10/07 05:23:34;;;;;;;;;;;;;;;;;;2058187;28;19914;-94
2023/10/07 05:24:35;;;;;;;;;;;;;;;;;;2049160;28;19915;-92
2023/10/07 05:25:42;;;;;;;;;;;;;;;;;;2058116;28;19918;-93
2023/10/07 05:26:42;;;;;;;;;;;;;;;;;;2057506;28;19921;-92
2023/10/07 05:28:46;;;;;;;;;;;;;;;;;;2064047;28;19922;-94
2023/10/07 05:29:47;;;;;;;;;;;;;;;;;;2064753;28;20348;-93
2023/10/07 05:30:51;;;;;;;;;;;;;;;;;;2058102;28;20051;-93
2023/10/07 05:31:51;;;;;;;;;;;;;;;;;;2050419;28;20321;-93
2023/10/07 05:33:20;;;;;;;;;;;;;;;;;;2050318;28;19914;-93
2023/10/07 05:34:20;;;;;;;;;;;;;;;;;;2056304;28;19918;-93
2023/10/07 05:35:21;;;;;;;;;;;;;;;;;;2050489;28;20330;-91
2023/10/07 05:36:27;;;;;;;;;;;;;;;;;;2057946;28;19918;-94
2023/10/07 05:37:28;;;;;;;;;;;;;;;;;;2058271;28;19980;-93
2023/10/07 05:38:30;;;;;;;;;;;;;;;;;;2058060;28;19949;-94
2023/10/07 05:39:46;;;;;;;;;;;;;;;;;;2058108;28;19946;-94
2023/10/07 05:40:49;;;;;;;;;;;;;;;;;;2051805;28;19910;-94
2023/10/07 05:41:50;;;;;;;;;;;;;;;;;;2058514;28;20282;-94
2023/10/07 05:42:50;;;;;;;;;;;;;;;;;;2057896;28;19926;-92
2023/10/07 05:43:51;;;;;;;;;;;;;;;;;;2050044;28;19945;-93
2023/10/07 05:44:52;;;;;;;;;;;;;;;;;;2057893;28;20347;-93
2023/10/07 05:45:55;;;;;;;;;;;;;;;;;;2049815;28;19928;-94
2023/10/07 05:46:59;;;;;;;;;;;;;;;;;;2050540;28;20441;-93
2023/10/07 05:47:59;;;;;;;;;;;;;;;;;;2047984;28;19950;-93
2023/10/07 05:49:00;;;;;;;;;;;;;;;;;;2049876;28;19918;-93
2023/10/07 05:50:04;;;;;;;;;;;;;;;;;;2049725;28;19914;-94
2023/10/07 05:51:07;;;;;;;;;;;;;;;;;;2048192;28;19918;-93
2023/10/07 05:52:18;;;;;;;;;;;;;;;;;;2050868;28;19922;-92
2023/10/07 05:55:12;;;;;;;;;;;;;;;;;;2039937;29;19923;-93
2023/10/07 05:56:47;;;;;;;;;;;;;;;;;;2043588;29;20008;-93
2023/10/07 05:58:48;;;;;;;;;;;;;;;;;;2064511;28;19929;-93
2023/10/07 05:59:51;;;;;;;;;;;;;;;;;;2055605;28;20348;-93
2023/10/07 06:00:52;;;;;;;;;;;;;;;;;;2050243;28;20380;-93
2023/10/07 06:01:53;;;;;;;;;;;;;;;;;;2055875;28;20009;-93
2023/10/07 06:02:53;;;;;;;;;;;;;;;;;;2066448;28;19925;-93
2023/10/07 06:03:53;;;;;;;;;;;;;;;;;;2057658;28;19914;-93
2023/10/07 06:04:53;;;;;;;;;;;;;;;;;;2049921;28;20294;-93
2023/10/07 06:05:57;;;;;;;;;;;;;;;;;;2049629;28;19925;-93
2023/10/07 06:06:57;;;;;;;;;;;;;;;;;;2050048;28;19918;-92
2023/10/07 06:07:57;;;;;;;;;;;;;;;;;;2049808;28;19918;-93
2023/10/07 06:09:00;;;;;;;;;;;;;;;;;;2049754;28;19922;-94
2023/10/07 06:10:02;;;;;;;;;;;;;;;;;;2049946;28;19914;-93
2023/10/07 06:11:04;;;;;;;;;;;;;;;;;;2057997;28;20424;-93
2023/10/07 06:12:07;;;;;;;;;;;;;;;;;;2057682;28;19918;-93
2023/10/07 06:13:10;;;;;;;;;;;;;;;;;;2049859;28;19910;-93
2023/10/07 06:14:13;;;;;;;;;;;;;;;;;;2057681;28;20037;-93
2023/10/07 06:15:13;;;;;;;;;;;;;;;;;;2049873;28;20393;-93
2023/10/07 06:16:14;;;;;;;;;;;;;;;;;;2049766;28;19915;-94
2023/10/07 06:17:15;;;;;;;;;;;;;;;;;;2049771;28;19925;-93
2023/10/07 06:18:18;;;;;;;;;;;;;;;;;;2049584;28;20376;-95
2023/10/07 06:19:18;;;;;;;;;;;;;;;;;;2050022;28;19964;-93
2023/10/07 06:20:26;;;;;;;;;;;;;;;;;;2057614;28;19914;-93
2023/10/07 06:21:29;;;;;;;;;;;;;;;;;;2057636;28;19925;-93
2023/10/07 06:22:33;;;;;;;;;;;;;;;;;;2049750;28;20302;-92
2023/10/07 06:23:36;;;;;;;;;;;;;;;;;;2060462;28;19993;-94
2023/10/07 06:24:36;;;;;;;;;;;;;;;;;;2057875;28;19926;-93
2023/10/07 06:25:37;;;;;;;;;;;;;;;;;;2049516;28;20385;-93
2023/10/07 06:26:37;;;;;;;;;;;;;;;;;;2049466;28;19914;-93
2023/10/07 06:27:38;;;;;;;;;;;;;;;;;;2057693;28;20022;-93
2023/10/07 06:28:44;;;;;;;;;;;;;;;;;;2057527;28;20338;-93
2023/10/07 06:29:44;;;;;;;;;;;;;;;;;;2050011;28;19910;-93
2023/10/07 06:30:45;;;;;;;;;;;;;;;;;;2049633;28;19922;-94
2023/10/07 06:31:55;;;;;;;;;;;;;;;;;;2049832;28;19910;-93
2023/10/07 06:32:55;;;;;;;;;;;;;;;;;;2059094;28;19918;-92
2023/10/07 06:34:12;;;;;;;;;;;;;;;;;;2057662;28;19929;-92
2023/10/07 06:35:21;;;;;;;;;;;;;;;;;;2059933;28;20345;-93
2023/10/07 06:36:21;;;;;;;;;;;;;;;;;;2057513;28;19941;-93
2023/10/07 06:37:28;;;;;;;;;;;;;;;;;;2049318;28;19919;-93
2023/10/07 06:38:28;;;;;;;;;;;;;;;;;;2050288;28;20393;-93
2023/10/07 06:39:29;;;;;;;;;;;;;;;;;;2049597;28;19914;-92
2023/10/07 06:40:29;;;;;;;;;;;;;;;;;;1699712;28;10002450;-93
2023/10/07 06:41:29;;;;;;;;;;;;;;;;;;2049440;28;19914;-93
2023/10/07 06:42:30;;;;;;;;;;;;;;;;;;2049328;28;19914;-92
2023/10/07 06:43:30;;;;;;;;;;;;;;;;;;2049800;28;20449;-93
2023/10/07 06:44:30;;;;;;;;;;;;;;;;;;2058274;28;19917;-94
2023/10/07 06:45:38;;;;;;;;;;;;;;;;;;2049894;28;20314;-93
2023/10/07 06:46:41;;;;;;;;;;;;;;;;;;2050684;28;19918;-93
2023/10/07 06:47:42;;;;;;;;;;;;;;;;;;2050050;28;19970;-93
2023/10/07 06:48:43;;;;;;;;;;;;;;;;;;2050476;28;19914;-93
2023/10/07 06:49:43;;;;;;;;;;;;;;;;;;2059105;28;20317;-93
2023/10/07 06:50:45;;;;;;;;;;;;;;;;;;2067628;28;20071;-95
2023/10/07 06:51:50;;;;;;;;;;;;;;;;;;2066763;28;20001;-92
2023/10/07 06:52:51;;;;;;;;;;;;;;;;;;2057524;28;19925;-93
2023/10/07 06:53:51;;;;;;;;;;;;;;;;;;2050176;28;20004;-94
2023/10/07 06:54:54;;;;;;;;;;;;;;;;;;2050558;28;20406;-93
2023/10/07 06:55:55;;;;;;;;;;;;;;;;;;2050320;28;20434;-95
2023/10/07 06:56:55;;;;;;;;;;;;;;;;;;2050304;28;20036;-93
2023/10/07 06:57:58;;;;;;;;;;;;;;;;;;2050344;29;19914;-93
2023/10/07 06:58:59;;;;;;;;;;;;;;;;;;2050916;28;19918;-93
2023/10/07 07:00:00;;;;;;;;;;;;;;;;;;2050346;28;19918;-93
2023/10/07 07:01:10;;;;;;;;;;;;;;;;;;2058612;28;19949;-94
2023/10/07 07:02:18;;;;;;;;;;;;;;;;;;2058073;28;19924;-94
2023/10/07 07:03:19;;;;;;;;;;;;;;;;;;2054547;28;19976;-93
2023/10/07 07:04:19;;;;;;;;;;;;;;;;;;2050253;28;19918;-93
2023/10/07 07:05:19;;;;;;;;;;;;;;;;;;2049801;28;19922;-94
2023/10/07 07:06:33;;;;;;;;;;;;;;;;;;2058316;28;19958;-93
2023/10/07 07:07:37;;;;;;;;;;;;;;;;;;2057810;28;20305;-92
2023/10/07 07:08:38;;;;;;;;;;;;;;;;;;2050081;28;20405;-93
2023/10/07 07:09:50;;;;;;;;;;;;;;;;;;2057862;28;19914;-91
2023/10/07 07:10:55;;;;;;;;;;;;;;;;;;2058382;28;19914;-91
2023/10/07 07:11:58;;;;;;;;;;;;;;;;;;2057691;28;19925;-90
2023/10/07 07:12:59;;;;;;;;;;;;;;;;;;2049773;28;19918;-92
2023/10/07 07:13:59;;;;;;;;;;;;;;;;;;2057596;28;20252;-92
2023/10/07 07:15:04;;;;;;;;;;;;;;;;;;2057297;28;20401;-91
2023/10/07 07:16:08;;;;;;;;;;;;;;;;;;2058043;28;20009;-92
2023/10/07 07:18:27;;;;;;;;;;;;;;;;;;2059967;28;19917;-92
2023/10/07 07:19:29;;;;;;;;;;;;;;;;;;2057000;28;19973;-92
2023/10/07 07:20:33;;;;;;;;;;;;;;;;;;2057234;28;19997;-93
2023/10/07 07:21:36;;;;;;;;;;;;;;;;;;2068172;28;19909;-92
2023/10/07 07:22:36;;;;;;;;;;;;;;;;;;2066028;28;19964;-93
2023/10/07 07:23:40;;;;;;;;;;;;;;;;;;2056913;28;20321;-93
2023/10/07 07:24:41;;;;;;;;;;;;;;;;;;2057435;28;19964;-93
2023/10/07 07:25:49;;;;;;;;;;;;;;;;;;2056984;28;20017;-93
2023/10/07 07:26:52;;;;;;;;;;;;;;;;;;2049506;28;19918;-93
2023/10/07 07:27:53;;;;;;;;;;;;;;;;;;2057446;28;19922;-92
2023/10/07 07:28:56;;;;;;;;;;;;;;;;;;2065962;28;19918;-93
2023/10/07 07:30:00;;;;;;;;;;;;;;;;;;2056920;28;19925;-93
2023/10/07 07:31:02;;;;;;;;;;;;;;;;;;2057581;28;19929;-93
2023/10/07 07:32:17;;;;;;;;;;;;;;;;;;2056994;28;19965;-92
2023/10/07 07:33:22;;;;;;;;;;;;;;;;;;2050905;28;19965;-93
2023/10/07 07:34:26;;;;;;;;;;;;;;;;;;2049435;28;20346;-94
2023/10/07 07:35:39;;;;;;;;;;;;;;;;;;2049556;28;20449;-93
2023/10/07 07:36:42;;;;;;;;;;;;;;;;;;2058776;28;19924;-93
2023/10/07 07:37:42;;;;;;;;;;;;;;;;;;2065785;28;20397;-93
2023/10/07 07:38:45;;;;;;;;;;;;;;;;;;2065561;28;20008;-93
2023/10/07 07:39:47;;;;;;;;;;;;;;;;;;2065840;28;19909;-93
2023/10/07 07:40:49;;;;;;;;;;;;;;;;;;2065638;28;19964;-91
2023/10/07 07:41:55;;;;;;;;;;;;;;;;;;2057006;28;20390;-93
2023/10/07 07:42:56;;;;;;;;;;;;;;;;;;2049771;28;19919;-93
2023/10/07 07:43:59;;;;;;;;;;;;;;;;;;2058962;28;19957;-93
2023/10/07 07:44:59;;;;;;;;;;;;;;;;;;2065733;28;19921;-93
2023/10/07 07:46:11;;;;;;;;;;;;;;;;;;2065609;28;19981;-94
2023/10/07 07:47:11;;;;;;;;;;;;;;;;;;2057349;28;20041;-93
2023/10/07 07:48:12;;;;;;;;;;;;;;;;;;2055597;29;19918;-91